Time;durP1;ratioP1;P1;durP2;ratioP2;P2;SDS_P1;SDS_P2;PMS_P1;PMS_P2;Temp;Humidity;BMP_temperature;BMP_pressure;BME280_temperature;BME280_humidity;BME280_pressure;Samples;Min_cycle;Max_cycle;Signal;HPM_P1;HPM_P2
2021/06/29 00:00:17;;;;;;;;;;;26.10;96.10;;;;;;1914464;73;20148;-93
2021/06/29 00:02:47;;;;;;;;;;;26.20;96.10;;;;;;1930337;71;20186;-92
2021/06/29 00:05:17;;;;;;;;;;;26.20;95.90;;;;;;1946449;70;20119;-93
2021/06/29 00:07:47;;;;;;;;;;;26.20;95.90;;;;;;1957373;71;20244;-91
2021/06/29 00:10:17;;;;;;;;;;;26.20;95.90;;;;;;1945263;72;20514;-93
2021/06/29 00:12:48;;;;;;;;;;;26.20;96.00;;;;;;1948297;71;20216;-93
2021/06/29 00:15:18;;;;;;;;;;;26.30;96.00;;;;;;1941087;71;20191;-93
2021/06/29 00:17:48;;;;;;;;;;;26.30;95.90;;;;;;1935857;72;20138;-92
2021/06/29 00:20:18;;;;;;;;;;;26.40;95.60;;;;;;1947811;71;20124;-94
2021/06/29 00:22:48;;;;;;;;;;;26.40;95.60;;;;;;1938536;72;20229;-90
2021/06/29 00:25:18;;;;;;;;;;;26.40;95.70;;;;;;1965840;71;20178;-91
2021/06/29 00:27:48;;;;;;;;;;;26.40;95.50;;;;;;1936606;72;20194;-94
2021/06/29 00:30:18;;;;;;;;;;;26.40;95.40;;;;;;1941225;72;20596;-92
2021/06/29 00:32:48;;;;;;;;;;;26.40;95.40;;;;;;1948135;71;20183;-93
2021/06/29 00:35:19;;;;;;;;;;;26.40;95.50;;;;;;1953630;71;20097;-93
2021/06/29 00:37:49;;;;;;;;;;;26.40;95.60;;;;;;1963360;72;20194;-91
2021/06/29 00:40:21;;;;;;;;;;;26.40;95.50;;;;;;1954075;72;20218;-93
2021/06/29 00:42:50;;;;;;;;;;;26.50;95.60;;;;;;1919556;72;20190;-93
2021/06/29 00:45:26;;;;;;;;;;;26.50;95.60;;;;;;1944675;71;20176;-93
2021/06/29 00:47:57;;;;;;;;;;;26.50;95.70;;;;;;1951846;72;20127;-93
2021/06/29 00:50:27;;;;;;;;;;;26.50;95.70;;;;;;1938470;71;20179;-92
2021/06/29 00:52:57;;;;;;;;;;;26.50;95.50;;;;;;1952100;71;20178;-91
2021/06/29 00:55:27;;;;;;;;;;;26.60;95.60;;;;;;1929997;72;20487;-93
2021/06/29 00:57:59;;;;;;;;;;;26.60;95.80;;;;;;1939084;72;20416;-87
2021/06/29 01:00:29;;;;;;;;;;;26.70;95.40;;;;;;1937415;72;20179;-92
2021/06/29 01:03:03;;;;;;;;;;;26.80;95.00;;;;;;1924863;72;20228;-92
2021/06/29 01:05:35;;;;;;;;;;;26.80;95.10;;;;;;1948151;73;20219;-94
2021/06/29 01:08:06;;;;;;;;;;;26.80;95.10;;;;;;1947021;71;20218;-94
2021/06/29 01:10:45;;;;;;;;;;;26.90;95.20;;;;;;1952073;71;20179;-93
2021/06/29 01:13:11;;;;;;;;;;;26.90;94.70;;;;;;1950074;71;20143;-91
2021/06/29 01:15:43;;;;;;;;;;;27.00;94.60;;;;;;1933833;72;20250;-93
2021/06/29 01:18:15;;;;;;;;;;;27.00;94.80;;;;;;1944321;72;20202;-86
2021/06/29 01:20:51;;;;;;;;;;;27.00;94.50;;;;;;1947997;71;20375;-90
2021/06/29 01:29:14;;;;;;;;;;;27.10;94.20;;;;;;1837417;76;20226;-86
2021/06/29 01:31:43;;;;;;;;;;;27.10;94.40;;;;;;1850838;76;20180;-85
2021/06/29 01:34:13;;;;;;;;;;;27.10;94.20;;;;;;1873769;75;20125;-87
2021/06/29 01:36:51;;;;;;;;;;;27.20;94.30;;;;;;1842731;76;20189;-87
2021/06/29 01:39:21;;;;;;;;;;;27.20;94.40;;;;;;1909265;73;20223;-85
2021/06/29 01:41:51;;;;;;;;;;;27.30;94.20;;;;;;1931214;73;20231;-88
2021/06/29 01:44:28;;;;;;;;;;;27.40;94.10;;;;;;1917975;73;20200;-74
2021/06/29 01:46:55;;;;;;;;;;;27.50;94.00;;;;;;1916906;73;20297;-76
2021/06/29 01:49:25;;;;;;;;;;;27.50;94.40;;;;;;1907353;73;20192;-77
2021/06/29 01:51:56;;;;;;;;;;;27.60;94.00;;;;;;1911412;73;20455;-76
2021/06/29 01:54:28;;;;;;;;;;;27.70;94.10;;;;;;1920467;73;20176;-75
2021/06/29 01:56:58;;;;;;;;;;;27.70;93.60;;;;;;1848332;75;20452;-76
2021/06/29 01:59:28;;;;;;;;;;;27.80;93.60;;;;;;1856074;74;20175;-76
2021/06/29 02:01:59;;;;;;;;;;;27.90;94.00;;;;;;1864628;74;20204;-76
2021/06/29 02:04:32;;;;;;;;;;;28.00;93.10;;;;;;1895415;73;20162;-77
2021/06/29 02:07:00;;;;;;;;;;;28.00;92.90;;;;;;1849646;74;20240;-76
2021/06/29 02:09:29;;;;;;;;;;;28.10;92.50;;;;;;1859616;74;20825;-76
2021/06/29 02:12:01;;;;;;;;;;;28.10;92.50;;;;;;1861501;74;21095;-76
2021/06/29 02:14:30;;;;;;;;;;;28.10;92.40;;;;;;1877397;74;20189;-76
2021/06/29 02:17:00;;;;;;;;;;;28.10;92.50;;;;;;1885072;73;20274;-77
2021/06/29 02:19:30;;;;;;;;;;;28.10;92.50;;;;;;1915576;73;20177;-76
2021/06/29 02:22:00;;;;;;;;;;;28.20;92.70;;;;;;1915461;73;20126;-76
2021/06/29 02:24:33;;;;;;;;;;;28.30;92.70;;;;;;1933164;73;20239;-78
2021/06/29 02:27:07;;;;;;;;;;;28.30;92.50;;;;;;1920819;72;20118;-77
2021/06/29 02:29:37;;;;;;;;;;;28.40;92.00;;;;;;1893514;73;20242;-78
2021/06/29 02:32:07;;;;;;;;;;;28.50;92.20;;;;;;1925695;73;20121;-79
2021/06/29 02:34:37;;;;;;;;;;;28.70;92.10;;;;;;1913675;73;20827;-77
2021/06/29 02:37:09;;;;;;;;;;;28.70;91.60;;;;;;1915872;73;20259;-77
2021/06/29 02:39:39;;;;;;;;;;;28.80;91.80;;;;;;1918712;73;20383;-78
2021/06/29 02:42:13;;;;;;;;;;;28.80;91.20;;;;;;1934542;73;20151;-78
2021/06/29 02:44:42;;;;;;;;;;;28.80;91.30;;;;;;1944766;72;20167;-79
2021/06/29 02:47:11;;;;;;;;;;;28.80;91.50;;;;;;1923012;73;20487;-78
2021/06/29 02:49:41;;;;;;;;;;;28.80;91.40;;;;;;1910444;73;20387;-79
2021/06/29 02:52:19;;;;;;;;;;;28.80;91.10;;;;;;1941819;73;20189;-79
2021/06/29 02:54:45;;;;;;;;;;;28.80;91.20;;;;;;1927462;73;20219;-77
2021/06/29 02:57:15;;;;;;;;;;;28.80;91.30;;;;;;1927629;73;20397;-79
2021/06/29 02:59:44;;;;;;;;;;;28.90;91.20;;;;;;1929895;73;20184;-76
2021/06/29 03:02:17;;;;;;;;;;;29.00;91.30;;;;;;1919067;73;20548;-76
2021/06/29 03:04:52;;;;;;;;;;;29.00;91.00;;;;;;1924291;73;20234;-78
2021/06/29 03:07:22;;;;;;;;;;;28.90;90.90;;;;;;1915443;73;20166;-78
2021/06/29 03:09:55;;;;;;;;;;;29.00;91.00;;;;;;1905093;73;20208;-77
2021/06/29 03:12:22;;;;;;;;;;;29.00;90.80;;;;;;1925814;73;20177;-78
2021/06/29 03:14:58;;;;;;;;;;;29.00;91.10;;;;;;1921491;73;20214;-78
2021/06/29 03:17:25;;;;;;;;;;;29.00;91.00;;;;;;1909438;73;20197;-78
2021/06/29 03:19:56;;;;;;;;;;;29.00;90.80;;;;;;1918631;72;20429;-78
2021/06/29 03:22:26;;;;;;;;;;;29.00;91.00;;;;;;1932539;73;20468;-78
2021/06/29 03:24:57;;;;;;;;;;;29.00;91.00;;;;;;1919279;73;20153;-79
2021/06/29 03:27:26;;;;;;;;;;;29.00;91.00;;;;;;1916721;73;20205;-78
2021/06/29 03:29:58;;;;;;;;;;;29.00;90.80;;;;;;1915877;73;20203;-79
2021/06/29 03:32:29;;;;;;;;;;;29.10;90.80;;;;;;1933020;73;20221;-78
2021/06/29 03:34:59;;;;;;;;;;;29.10;90.50;;;;;;1928619;73;20196;-79
2021/06/29 03:37:29;;;;;;;;;;;29.10;90.40;;;;;;1887890;72;20156;-79
2021/06/29 03:39:59;;;;;;;;;;;29.10;90.50;;;;;;1845818;75;20260;-78
2021/06/29 03:42:30;;;;;;;;;;;29.10;90.70;;;;;;1913017;73;20213;-78
2021/06/29 03:45:00;;;;;;;;;;;29.10;90.70;;;;;;1931911;73;20452;-78
2021/06/29 03:47:29;;;;;;;;;;;29.10;90.30;;;;;;1895157;73;20126;-78
2021/06/29 03:50:00;;;;;;;;;;;29.10;90.30;;;;;;1854632;75;20158;-78
2021/06/29 03:52:33;;;;;;;;;;;29.20;90.30;;;;;;1878999;75;20214;-78
2021/06/29 03:55:04;;;;;;;;;;;29.20;90.40;;;;;;1892438;74;20185;-78
2021/06/29 03:57:37;;;;;;;;;;;29.20;90.30;;;;;;1870025;74;20203;-79
2021/06/29 04:00:18;;;;;;;;;;;29.30;90.70;;;;;;1886118;73;20167;-78
2021/06/29 04:02:51;;;;;;;;;;;29.30;90.10;;;;;;1894413;73;20118;-78
2021/06/29 04:05:24;;;;;;;;;;;29.30;90.10;;;;;;1867373;75;20255;-77
2021/06/29 04:07:53;;;;;;;;;;;29.30;90.30;;;;;;1897409;73;20400;-74
2021/06/29 04:10:24;;;;;;;;;;;29.30;90.00;;;;;;1901439;73;20231;-76
2021/06/29 04:15:48;;;;;;;;;;;29.30;90.20;;;;;;1871767;74;20153;-78
2021/06/29 04:18:18;;;;;;;;;;;29.40;90.40;;;;;;1850695;75;20211;-78
2021/06/29 04:20:55;;;;;;;;;;;29.40;90.30;;;;;;1901615;73;20267;-79
2021/06/29 04:23:25;;;;;;;;;;;29.50;90.30;;;;;;1902151;73;20197;-79
2021/06/29 04:25:57;;;;;;;;;;;29.60;90.20;;;;;;1908520;73;20189;-80
2021/06/29 04:28:27;;;;;;;;;;;29.70;90.00;;;;;;1914112;73;20461;-79
2021/06/29 04:30:57;;;;;;;;;;;29.70;89.00;;;;;;1845026;74;20299;-78
2021/06/29 04:33:28;;;;;;;;;;;29.80;90.00;;;;;;1889350;73;20215;-78
2021/06/29 04:35:58;;;;;;;;;;;29.80;88.50;;;;;;1931372;72;20207;-77
2021/06/29 04:38:28;;;;;;;;;;;29.80;87.40;;;;;;1942844;71;20504;-78
2021/06/29 04:41:00;;;;;;;;;;;29.90;87.50;;;;;;1911432;72;20245;-79
2021/06/29 04:43:32;;;;;;;;;;;29.90;87.60;;;;;;1913916;72;20292;-77
2021/06/29 04:46:01;;;;;;;;;;;30.00;87.40;;;;;;1925807;72;20126;-78
2021/06/29 04:48:31;;;;;;;;;;;30.00;87.00;;;;;;1937162;71;20194;-78
2021/06/29 04:51:06;;;;;;;;;;;30.00;86.40;;;;;;1943248;71;20348;-77
2021/06/29 04:53:36;;;;;;;;;;;30.10;87.10;;;;;;1930288;73;20206;-78
2021/06/29 04:56:22;;;;;;;;;;;30.10;87.30;;;;;;1940120;72;20181;-79
2021/06/29 04:58:37;;;;;;;;;;;30.10;87.90;;;;;;1936800;71;20135;-79
2021/06/29 05:01:07;;;;;;;;;;;30.20;85.90;;;;;;1926420;71;20480;-78
2021/06/29 05:03:38;;;;;;;;;;;30.20;85.90;;;;;;1953491;72;20195;-78
2021/06/29 05:06:12;;;;;;;;;;;30.20;84.90;;;;;;1915689;73;20246;-78
2021/06/29 05:08:44;;;;;;;;;;;30.20;83.80;;;;;;1946756;72;20246;-78
2021/06/29 05:11:14;;;;;;;;;;;30.20;84.00;;;;;;1917938;73;20217;-79
2021/06/29 05:13:44;;;;;;;;;;;30.20;84.70;;;;;;1964345;72;20195;-79
2021/06/29 05:16:14;;;;;;;;;;;30.30;84.10;;;;;;1938109;72;20147;-79
2021/06/29 05:18:44;;;;;;;;;;;30.40;84.40;;;;;;1932593;72;20429;-79
2021/06/29 05:21:14;;;;;;;;;;;30.50;84.20;;;;;;1926184;72;20222;-79
2021/06/29 05:23:48;;;;;;;;;;;30.60;84.90;;;;;;1941762;72;20203;-78
2021/06/29 05:26:18;;;;;;;;;;;30.70;84.70;;;;;;1945656;72;21030;-79
2021/06/29 05:28:50;;;;;;;;;;;30.80;83.70;;;;;;1899544;74;20154;-79
2021/06/29 05:31:19;;;;;;;;;;;30.80;83.80;;;;;;1916060;73;20373;-79
2021/06/29 05:36:45;;;;;;;;;;;30.90;83.70;;;;;;1906461;72;20248;-79
2021/06/29 05:39:21;;;;;;;;;;;31.00;82.70;;;;;;1933550;72;20184;-79
2021/06/29 05:41:56;;;;;;;;;;;31.00;81.60;;;;;;1933505;72;20197;-78
2021/06/29 05:44:23;;;;;;;;;;;31.00;81.80;;;;;;1905823;72;20205;-78
2021/06/29 05:46:55;;;;;;;;;;;31.00;81.70;;;;;;1925899;73;20225;-79
2021/06/29 05:49:24;;;;;;;;;;;31.00;81.70;;;;;;1948076;72;20248;-78
2021/06/29 05:51:54;;;;;;;;;;;31.00;80.40;;;;;;1952911;72;20211;-78
2021/06/29 05:54:23;;;;;;;;;;;31.10;81.20;;;;;;1935355;72;20232;-79
2021/06/29 05:56:53;;;;;;;;;;;31.10;80.30;;;;;;1929640;73;20210;-79
2021/06/29 05:59:23;;;;;;;;;;;31.20;80.90;;;;;;1894981;74;20192;-79
2021/06/29 06:01:54;;;;;;;;;;;31.20;81.00;;;;;;1922072;73;20155;-79
2021/06/29 06:04:24;;;;;;;;;;;31.20;80.90;;;;;;1930379;72;20209;-79
2021/06/29 06:06:53;;;;;;;;;;;31.20;81.00;;;;;;1929776;72;20224;-78
2021/06/29 06:09:25;;;;;;;;;;;31.20;81.80;;;;;;1945099;72;20195;-79
2021/06/29 06:11:55;;;;;;;;;;;31.10;81.90;;;;;;1931548;72;20181;-78
2021/06/29 06:14:25;;;;;;;;;;;31.10;82.20;;;;;;1932685;71;20472;-79
2021/06/29 06:16:55;;;;;;;;;;;31.10;82.50;;;;;;1936301;72;20204;-79
2021/06/29 06:19:25;;;;;;;;;;;31.20;82.80;;;;;;1912308;73;20169;-79
2021/06/29 06:21:54;;;;;;;;;;;31.30;84.10;;;;;;1914382;72;20110;-78
2021/06/29 06:24:24;;;;;;;;;;;31.50;84.40;;;;;;1920530;73;20187;-78
2021/06/29 06:26:54;;;;;;;;;;;31.60;83.50;;;;;;1935837;72;20203;-79
2021/06/29 06:29:23;;;;;;;;;;;31.70;83.30;;;;;;1933381;73;20500;-77
2021/06/29 06:31:54;;;;;;;;;;;31.80;83.40;;;;;;1936556;72;20261;-78
2021/06/29 06:34:24;;;;;;;;;;;31.80;83.20;;;;;;1936916;73;20199;-79
2021/06/29 06:36:54;;;;;;;;;;;31.90;82.00;;;;;;1902328;73;20124;-78
2021/06/29 06:39:25;;;;;;;;;;;32.00;81.10;;;;;;1904952;74;20129;-79
2021/06/29 06:41:55;;;;;;;;;;;32.00;82.40;;;;;;1881354;74;20160;-77
2021/06/29 06:44:25;;;;;;;;;;;32.00;81.70;;;;;;1905705;74;20406;-80
2021/06/29 06:46:55;;;;;;;;;;;32.00;79.40;;;;;;1910932;73;20181;-79
2021/06/29 06:49:27;;;;;;;;;;;32.00;80.60;;;;;;1923548;73;20485;-77
2021/06/29 06:51:59;;;;;;;;;;;32.10;79.90;;;;;;1915780;73;20182;-78
2021/06/29 06:54:29;;;;;;;;;;;32.10;79.30;;;;;;1894943;73;20215;-80
2021/06/29 06:56:59;;;;;;;;;;;32.00;78.80;;;;;;1871504;73;20247;-81
2021/06/29 06:59:29;;;;;;;;;;;32.00;78.80;;;;;;1912921;73;20208;-81
2021/06/29 07:01:59;;;;;;;;;;;32.00;80.40;;;;;;1905620;73;20240;-81
2021/06/29 07:04:29;;;;;;;;;;;31.80;79.70;;;;;;1880137;74;20158;-80
2021/06/29 07:07:05;;;;;;;;;;;31.70;80.00;;;;;;1910772;73;20213;-79
2021/06/29 07:09:35;;;;;;;;;;;31.60;80.40;;;;;;1902125;74;20355;-79
2021/06/29 07:12:09;;;;;;;;;;;31.60;81.10;;;;;;1887590;74;20231;-79
2021/06/29 07:14:46;;;;;;;;;;;31.50;81.20;;;;;;1917255;73;20169;-80
2021/06/29 07:17:16;;;;;;;;;;;31.50;82.50;;;;;;1911171;73;20358;-79
2021/06/29 07:19:47;;;;;;;;;;;31.60;81.50;;;;;;1927148;72;20217;-78
2021/06/29 07:22:16;;;;;;;;;;;31.60;81.00;;;;;;1854004;74;20467;-80
2021/06/29 07:24:47;;;;;;;;;;;31.70;81.20;;;;;;1865694;74;20493;-79
2021/06/29 07:27:27;;;;;;;;;;;31.70;80.90;;;;;;1851816;75;20212;-78
2021/06/29 07:29:57;;;;;;;;;;;31.70;81.40;;;;;;1850377;75;20179;-80
2021/06/29 07:32:32;;;;;;;;;;;31.70;81.50;;;;;;1872743;74;20235;-80
2021/06/29 07:35:00;;;;;;;;;;;31.70;82.20;;;;;;1851212;76;20389;-80
2021/06/29 07:37:31;;;;;;;;;;;31.60;81.80;;;;;;1856366;75;20242;-80
2021/06/29 07:40:03;;;;;;;;;;;31.50;81.30;;;;;;1839633;76;20228;-80
2021/06/29 07:42:34;;;;;;;;;;;31.40;81.20;;;;;;1852896;75;20379;-78
2021/06/29 07:45:05;;;;;;;;;;;31.40;82.40;;;;;;1873374;75;20188;-79
2021/06/29 07:47:39;;;;;;;;;;;31.30;83.30;;;;;;1859977;76;21243;-79
2021/06/29 07:50:08;;;;;;;;;;;31.30;83.00;;;;;;1838711;75;20240;-78
2021/06/29 07:52:38;;;;;;;;;;;31.30;84.00;;;;;;1847334;76;20233;-79
2021/06/29 07:55:08;;;;;;;;;;;31.30;84.40;;;;;;1856168;76;20176;-79
2021/06/29 07:57:39;;;;;;;;;;;31.30;84.40;;;;;;1855258;75;20177;-79
2021/06/29 08:00:12;;;;;;;;;;;31.30;84.90;;;;;;1916507;72;20260;-78
2021/06/29 08:02:42;;;;;;;;;;;31.20;85.00;;;;;;1936354;72;20219;-80
2021/06/29 08:05:11;;;;;;;;;;;31.10;84.70;;;;;;1927476;71;20180;-79
2021/06/29 08:07:42;;;;;;;;;;;31.10;85.00;;;;;;1937550;72;20208;-80
2021/06/29 08:10:13;;;;;;;;;;;31.10;85.20;;;;;;1937298;72;20488;-79
2021/06/29 08:12:47;;;;;;;;;;;31.10;84.90;;;;;;1919013;72;20197;-78
2021/06/29 08:15:18;;;;;;;;;;;31.10;85.30;;;;;;1943257;72;20130;-79
2021/06/29 08:17:50;;;;;;;;;;;31.10;85.30;;;;;;1924267;72;20200;-78
2021/06/29 08:20:21;;;;;;;;;;;31.10;84.80;;;;;;1950117;72;20275;-79
2021/06/29 08:22:55;;;;;;;;;;;31.10;84.90;;;;;;1942493;72;20140;-78
2021/06/29 08:25:28;;;;;;;;;;;31.10;85.10;;;;;;1934390;72;20431;-78
2021/06/29 08:28:00;;;;;;;;;;;31.10;85.00;;;;;;1923699;72;20582;-78
2021/06/29 08:30:32;;;;;;;;;;;31.10;84.60;;;;;;1921703;72;20116;-78
2021/06/29 08:33:02;;;;;;;;;;;31.20;84.70;;;;;;1926833;73;20200;-78
2021/06/29 08:35:42;;;;;;;;;;;31.10;84.90;;;;;;1922285;73;20158;-78
2021/06/29 08:38:14;;;;;;;;;;;31.10;85.20;;;;;;1924390;72;20151;-78
2021/06/29 08:40:45;;;;;;;;;;;31.10;85.20;;;;;;1950671;72;20180;-78
2021/06/29 08:43:17;;;;;;;;;;;31.10;85.60;;;;;;1964906;72;20150;-79
2021/06/29 08:45:51;;;;;;;;;;;31.10;85.20;;;;;;1929938;72;20239;-79
2021/06/29 08:48:25;;;;;;;;;;;31.10;85.80;;;;;;1948924;72;20160;-79
2021/06/29 08:51:06;;;;;;;;;;;31.10;86.10;;;;;;1927820;73;20505;-78
2021/06/29 08:53:39;;;;;;;;;;;31.10;85.60;;;;;;1920673;72;20507;-80
2021/06/29 08:56:15;;;;;;;;;;;31.10;85.60;;;;;;1928813;72;20177;-79
2021/06/29 08:58:46;;;;;;;;;;;31.20;84.80;;;;;;1922930;72;20232;-78
2021/06/29 09:01:18;;;;;;;;;;;31.20;84.30;;;;;;1911393;72;20272;-79
2021/06/29 09:03:52;;;;;;;;;;;31.20;84.50;;;;;;1929111;73;20230;-80
2021/06/29 09:06:24;;;;;;;;;;;31.20;84.90;;;;;;1927523;73;20208;-80
2021/06/29 09:08:55;;;;;;;;;;;31.20;84.20;;;;;;1927011;73;20160;-81
2021/06/29 09:11:28;;;;;;;;;;;31.20;84.20;;;;;;1936397;72;20221;-80
2021/06/29 09:14:01;;;;;;;;;;;31.10;84.30;;;;;;1942520;73;20154;-78
2021/06/29 09:16:34;;;;;;;;;;;31.10;84.80;;;;;;1940224;72;20199;-77
2021/06/29 09:19:06;;;;;;;;;;;31.10;84.80;;;;;;1933577;73;20235;-79
2021/06/29 09:21:46;;;;;;;;;;;31.10;85.20;;;;;;1944724;73;20227;-79
2021/06/29 09:24:24;;;;;;;;;;;31.20;85.70;;;;;;1918896;73;20194;-79
2021/06/29 09:26:55;;;;;;;;;;;31.20;85.30;;;;;;1927072;72;20453;-78
2021/06/29 09:29:29;;;;;;;;;;;31.20;86.00;;;;;;1945638;71;20178;-77
2021/06/29 09:32:10;;;;;;;;;;;31.20;86.00;;;;;;1935088;71;20219;-81
2021/06/29 09:34:39;;;;;;;;;;;31.20;86.20;;;;;;1908404;73;20535;-81
2021/06/29 09:37:11;;;;;;;;;;;31.30;86.10;;;;;;1934696;72;20205;-80
2021/06/29 09:39:40;;;;;;;;;;;31.30;85.40;;;;;;1944872;72;20188;-79
2021/06/29 09:42:14;;;;;;;;;;;31.20;84.80;;;;;;1924100;72;20267;-81
2021/06/29 09:44:47;;;;;;;;;;;31.20;84.40;;;;;;1931751;72;20214;-81
2021/06/29 09:47:23;;;;;;;;;;;31.20;85.00;;;;;;1942572;72;20130;-81
2021/06/29 09:50:08;;;;;;;;;;;31.20;83.90;;;;;;1935875;71;20222;-81
2021/06/29 09:52:41;;;;;;;;;;;31.20;84.10;;;;;;1945267;73;20269;-80
2021/06/29 09:55:11;;;;;;;;;;;31.20;83.60;;;;;;1913801;72;20201;-81
2021/06/29 09:57:41;;;;;;;;;;;31.20;83.40;;;;;;1943018;73;20204;-82
2021/06/29 10:00:31;;;;;;;;;;;31.20;83.50;;;;;;1939250;72;20121;-80
2021/06/29 10:03:14;;;;;;;;;;;31.20;83.30;;;;;;1927058;71;20159;-80
2021/06/29 10:05:41;;;;;;;;;;;31.20;83.10;;;;;;1925059;72;20431;-81
2021/06/29 10:08:16;;;;;;;;;;;31.20;83.10;;;;;;1925627;71;20278;-82
2021/06/29 10:10:42;;;;;;;;;;;31.20;82.90;;;;;;1921993;71;20201;-80
2021/06/29 10:13:14;;;;;;;;;;;31.20;83.20;;;;;;1949560;72;20203;-80
2021/06/29 10:15:44;;;;;;;;;;;31.20;83.30;;;;;;1934833;72;20156;-81
2021/06/29 10:18:16;;;;;;;;;;;31.30;83.60;;;;;;1953868;71;20172;-81
2021/06/29 10:20:59;;;;;;;;;;;31.30;83.90;;;;;;1928950;72;20212;-79
2021/06/29 10:23:17;;;;;;;;;;;31.20;83.20;;;;;;1839154;75;20191;-80
2021/06/29 10:25:47;;;;;;;;;;;31.20;83.60;;;;;;1893191;72;20543;-80
2021/06/29 10:28:18;;;;;;;;;;;31.20;83.90;;;;;;1858488;74;20153;-78
2021/06/29 10:30:48;;;;;;;;;;;31.20;84.10;;;;;;1872359;74;20152;-79
2021/06/29 10:33:18;;;;;;;;;;;31.20;84.30;;;;;;1860863;74;20266;-79
2021/06/29 10:35:49;;;;;;;;;;;31.20;84.10;;;;;;1864082;74;20205;-79
2021/06/29 10:38:20;;;;;;;;;;;31.20;83.90;;;;;;1881178;74;20488;-78
2021/06/29 10:40:50;;;;;;;;;;;31.20;83.80;;;;;;1896556;74;20195;-78
2021/06/29 10:43:21;;;;;;;;;;;31.20;84.00;;;;;;1900531;73;20549;-76
2021/06/29 10:45:52;;;;;;;;;;;31.20;83.90;;;;;;1871491;73;20200;-77
2021/06/29 10:48:23;;;;;;;;;;;31.10;83.80;;;;;;1894713;74;20147;-77
2021/06/29 10:50:54;;;;;;;;;;;31.10;83.80;;;;;;1890916;74;20211;-77
2021/06/29 10:53:27;;;;;;;;;;;31.10;83.70;;;;;;1881286;74;20187;-78
2021/06/29 10:55:57;;;;;;;;;;;31.10;83.40;;;;;;1878350;74;20513;-78
2021/06/29 10:58:28;;;;;;;;;;;31.10;83.20;;;;;;1857971;74;20408;-79
2021/06/29 11:00:59;;;;;;;;;;;31.10;83.40;;;;;;1849070;76;20496;-78
2021/06/29 11:03:30;;;;;;;;;;;31.00;83.10;;;;;;1843339;75;20185;-77
2021/06/29 11:06:01;;;;;;;;;;;31.00;83.50;;;;;;1868397;74;20171;-77
2021/06/29 11:08:32;;;;;;;;;;;31.00;83.10;;;;;;1864997;74;20223;-78
2021/06/29 11:11:03;;;;;;;;;;;31.00;83.20;;;;;;1876771;74;20207;-79
2021/06/29 11:13:34;;;;;;;;;;;31.00;83.50;;;;;;1859645;74;20449;-78
2021/06/29 11:16:04;;;;;;;;;;;31.00;83.80;;;;;;1879695;74;20544;-78
2021/06/29 11:18:35;;;;;;;;;;;31.00;83.90;;;;;;1876179;73;20241;-78
2021/06/29 11:21:06;;;;;;;;;;;31.00;84.20;;;;;;1869338;74;20181;-89
2021/06/29 11:23:37;;;;;;;;;;;30.90;84.40;;;;;;1880754;74;20139;-90
2021/06/29 11:26:08;;;;;;;;;;;30.90;84.80;;;;;;1897059;74;20609;-93
2021/06/29 11:28:42;;;;;;;;;;;30.90;84.90;;;;;;1884375;74;20278;-93
2021/06/29 11:31:13;;;;;;;;;;;30.90;84.80;;;;;;1903542;73;20193;-87
2021/06/29 11:33:44;;;;;;;;;;;30.80;85.10;;;;;;1862125;75;20256;-89
2021/06/29 11:36:15;;;;;;;;;;;30.80;85.30;;;;;;1847512;75;20305;-91
2021/06/29 11:38:44;;;;;;;;;;;30.80;85.70;;;;;;1862513;74;20221;-90
2021/06/29 11:41:16;;;;;;;;;;;30.80;85.80;;;;;;1855290;75;20172;-90
2021/06/29 11:43:45;;;;;;;;;;;30.70;85.90;;;;;;1919919;72;20277;-88
2021/06/29 11:46:18;;;;;;;;;;;30.70;86.20;;;;;;1859208;75;20162;-90
2021/06/29 11:48:51;;;;;;;;;;;30.70;86.20;;;;;;1854886;75;20269;-90
2021/06/29 11:51:21;;;;;;;;;;;30.60;86.10;;;;;;1834685;76;20243;-90
2021/06/29 11:53:53;;;;;;;;;;;30.60;86.50;;;;;;1848418;75;20133;-90
2021/06/29 11:56:23;;;;;;;;;;;30.60;86.30;;;;;;1887030;73;20937;-91
2021/06/29 11:58:54;;;;;;;;;;;30.60;86.40;;;;;;1867407;74;20677;-91
2021/06/29 12:01:28;;;;;;;;;;;30.60;86.50;;;;;;1867283;74;20482;-89
2021/06/29 12:03:56;;;;;;;;;;;30.60;86.60;;;;;;1912484;74;20594;-91
2021/06/29 12:06:25;;;;;;;;;;;30.60;87.00;;;;;;1873244;75;20129;-92
2021/06/29 12:08:56;;;;;;;;;;;30.60;87.00;;;;;;1857847;75;20236;-90
2021/06/29 12:11:26;;;;;;;;;;;30.60;86.90;;;;;;1862859;75;20296;-92
2021/06/29 12:13:55;;;;;;;;;;;30.60;87.00;;;;;;1922732;72;20185;-91
2021/06/29 12:16:30;;;;;;;;;;;30.60;87.10;;;;;;1933691;72;20188;-91
2021/06/29 12:18:59;;;;;;;;;;;30.60;87.20;;;;;;1929603;72;20149;-91
2021/06/29 12:21:30;;;;;;;;;;;30.60;87.20;;;;;;1925945;72;20192;-90
2021/06/29 12:24:01;;;;;;;;;;;30.50;88.40;;;;;;1948749;71;20523;-92
2021/06/29 12:26:31;;;;;;;;;;;30.60;88.30;;;;;;1918479;73;20185;-91
2021/06/29 12:29:01;;;;;;;;;;;30.50;87.50;;;;;;1920802;73;20229;-91
2021/06/29 12:31:30;;;;;;;;;;;30.50;87.40;;;;;;1926865;73;20402;-90
2021/06/29 12:34:00;;;;;;;;;;;30.50;87.40;;;;;;1901702;73;20613;-91
2021/06/29 12:36:35;;;;;;;;;;;30.50;87.50;;;;;;1909581;73;20177;-90
2021/06/29 12:39:03;;;;;;;;;;;30.50;87.60;;;;;;1941050;73;20115;-92
2021/06/29 12:41:34;;;;;;;;;;;30.50;87.70;;;;;;1907591;73;20204;-89
2021/06/29 12:44:05;;;;;;;;;;;30.50;87.80;;;;;;1924139;73;20130;-91
2021/06/29 12:46:36;;;;;;;;;;;30.50;88.40;;;;;;1913508;73;20154;-92
2021/06/29 12:49:10;;;;;;;;;;;30.50;88.00;;;;;;1921527;73;20161;-91
2021/06/29 12:51:44;;;;;;;;;;;30.50;88.00;;;;;;1917332;73;20219;-90
2021/06/29 12:54:14;;;;;;;;;;;30.50;88.00;;;;;;1920725;73;20638;-91
2021/06/29 12:56:48;;;;;;;;;;;30.50;88.50;;;;;;1915902;73;20483;-92
2021/06/29 12:59:19;;;;;;;;;;;30.40;88.20;;;;;;1916497;73;20130;-91
2021/06/29 13:01:55;;;;;;;;;;;30.40;88.40;;;;;;1910571;73;20232;-90
2021/06/29 13:04:23;;;;;;;;;;;30.40;88.60;;;;;;1911285;72;20224;-91
2021/06/29 13:06:53;;;;;;;;;;;30.40;88.70;;;;;;1935848;72;20221;-92
2021/06/29 13:09:25;;;;;;;;;;;30.40;88.80;;;;;;1907938;73;20263;-90
2021/06/29 13:11:57;;;;;;;;;;;30.40;89.90;;;;;;1927867;72;20316;-90
2021/06/29 13:14:29;;;;;;;;;;;30.40;89.20;;;;;;1924067;73;20110;-92
2021/06/29 13:17:00;;;;;;;;;;;30.40;89.60;;;;;;1922879;72;20297;-90
2021/06/29 13:19:30;;;;;;;;;;;30.30;90.00;;;;;;1927082;72;20213;-92
2021/06/29 13:22:06;;;;;;;;;;;30.30;89.80;;;;;;1939391;72;20223;-91
2021/06/29 13:24:33;;;;;;;;;;;30.30;89.60;;;;;;1924785;72;20160;-89
2021/06/29 13:27:04;;;;;;;;;;;30.30;90.00;;;;;;1915697;73;20222;-91
2021/06/29 13:29:35;;;;;;;;;;;30.30;90.10;;;;;;1922692;72;20185;-93
2021/06/29 13:32:06;;;;;;;;;;;30.30;90.00;;;;;;1926529;72;20205;-93
2021/06/29 13:34:36;;;;;;;;;;;30.30;90.00;;;;;;1957592;71;20186;-91
2021/06/29 13:37:08;;;;;;;;;;;30.20;89.70;;;;;;1932845;72;20346;-90
2021/06/29 13:39:43;;;;;;;;;;;30.20;89.50;;;;;;1933900;72;20159;-89
2021/06/29 13:42:26;;;;;;;;;;;30.20;89.70;;;;;;1925450;73;20218;-91
2021/06/29 13:44:59;;;;;;;;;;;30.20;89.70;;;;;;1930447;72;20153;-90
2021/06/29 13:47:31;;;;;;;;;;;30.20;89.70;;;;;;1830852;75;20223;-90
2021/06/29 13:50:02;;;;;;;;;;;30.20;89.60;;;;;;1852161;76;20253;-90
2021/06/29 13:52:32;;;;;;;;;;;30.20;89.60;;;;;;1866435;75;20159;-90
2021/06/29 13:55:03;;;;;;;;;;;30.20;89.60;;;;;;1848608;76;20226;-90
2021/06/29 13:57:33;;;;;;;;;;;30.10;89.40;;;;;;1892992;74;20121;-90
2021/06/29 14:00:11;;;;;;;;;;;30.10;89.40;;;;;;1871217;75;20223;-91
2021/06/29 14:02:40;;;;;;;;;;;30.20;89.50;;;;;;1913019;73;20200;-90
2021/06/29 14:05:10;;;;;;;;;;;30.10;89.50;;;;;;1916072;74;20180;-91
2021/06/29 14:07:41;;;;;;;;;;;30.10;89.80;;;;;;1887782;75;20180;-89
2021/06/29 14:10:12;;;;;;;;;;;30.10;89.50;;;;;;1891007;74;20185;-89
2021/06/29 14:12:42;;;;;;;;;;;30.10;89.70;;;;;;1922588;73;20521;-91
2021/06/29 14:15:11;;;;;;;;;;;30.10;89.80;;;;;;1913623;73;20197;-91
2021/06/29 14:17:41;;;;;;;;;;;30.10;90.00;;;;;;1914634;73;20145;-88
2021/06/29 14:20:11;;;;;;;;;;;30.00;90.00;;;;;;1912398;74;20450;-87
2021/06/29 14:22:40;;;;;;;;;;;30.00;90.10;;;;;;1915640;74;20166;-91
2021/06/29 14:25:11;;;;;;;;;;;29.90;90.20;;;;;;1902173;73;20430;-89
2021/06/29 14:27:42;;;;;;;;;;;29.90;90.30;;;;;;1924185;73;20252;-89
2021/06/29 14:30:12;;;;;;;;;;;29.80;90.40;;;;;;1909740;74;20191;-90
2021/06/29 14:32:42;;;;;;;;;;;29.80;90.60;;;;;;1921436;74;20162;-90
2021/06/29 14:35:12;;;;;;;;;;;29.80;90.60;;;;;;1917504;74;20196;-91
2021/06/29 14:37:44;;;;;;;;;;;29.80;90.70;;;;;;1898659;74;20207;-89
2021/06/29 14:40:14;;;;;;;;;;;29.70;90.70;;;;;;1915904;74;20178;-89
2021/06/29 14:42:44;;;;;;;;;;;29.70;90.90;;;;;;1875250;74;20229;-89
2021/06/29 14:45:18;;;;;;;;;;;29.70;90.90;;;;;;1919881;74;20186;-90
2021/06/29 14:47:50;;;;;;;;;;;29.70;90.90;;;;;;1910114;73;20535;-89
2021/06/29 14:50:20;;;;;;;;;;;29.60;90.90;;;;;;1912902;74;20132;-88